Time;durP1;ratioP1;P1;durP2;ratioP2;P2;SDS_P1;SDS_P2;PMS_P1;PMS_P2;Temp;Humidity;BMP_temperature;BMP_pressure;BME280_temperature;BME280_humidity;BME280_pressure;Samples;Min_cycle;Max_cycle;Signal;HPM_P1;HPM_P2
2021/10/01 00:00:47;;;;;;;3.28;1.75;;;;;;;;;;5036310;28;20176;-59
2021/10/01 00:03:16;;;;;;;2.58;1.80;;;;;;;;;;5053337;28;20033;-59
2021/10/01 00:05:42;;;;;;;3.08;1.88;;;;;;;;;;5053274;28;20052;-59
2021/10/01 00:08:09;;;;;;;2.95;1.60;;;;;;;;;;5035355;28;20462;-59
2021/10/01 00:10:35;;;;;;;3.63;2.05;;;;;;;;;;5035267;28;20060;-59
2021/10/01 00:13:01;;;;;;;2.65;1.38;;;;;;;;;;5019013;28;20060;-59
2021/10/01 00:15:28;;;;;;;3.53;2.20;;;;;;;;;;5053167;28;20383;-59
2021/10/01 00:17:54;;;;;;;2.78;1.63;;;;;;;;;;5035503;28;20047;-59
2021/10/01 00:20:23;;;;;;;4.03;2.35;;;;;;;;;;5019747;28;20021;-59
2021/10/01 00:22:49;;;;;;;3.75;2.30;;;;;;;;;;5053200;28;20436;-59
2021/10/01 00:25:15;;;;;;;2.53;1.48;;;;;;;;;;5035536;28;20051;-59
2021/10/01 00:27:41;;;;;;;6.07;1.90;;;;;;;;;;5035860;28;20120;-59
2021/10/01 00:30:10;;;;;;;2.92;2.03;;;;;;;;;;5052698;28;20474;-59
2021/10/01 00:32:36;;;;;;;2.60;1.65;;;;;;;;;;5035947;28;20033;-59
2021/10/01 00:35:02;;;;;;;5.57;2.25;;;;;;;;;;5035211;28;20490;-59
2021/10/01 00:37:28;;;;;;;2.65;1.60;;;;;;;;;;5053568;28;20040;-59
2021/10/01 00:39:54;;;;;;;3.35;2.05;;;;;;;;;;5053269;28;20159;-59
2021/10/01 00:42:23;;;;;;;2.30;1.52;;;;;;;;;;5053196;28;20068;-60
2021/10/01 00:44:49;;;;;;;4.82;2.00;;;;;;;;;;5052822;28;20475;-60
2021/10/01 00:47:15;;;;;;;3.17;1.92;;;;;;;;;;5052854;28;20459;-59
2021/10/01 00:49:43;;;;;;;3.88;1.90;;;;;;;;;;5056007;28;20549;-60
2021/10/01 00:52:09;;;;;;;3.15;1.90;;;;;;;;;;5039139;28;20052;-59
2021/10/01 00:54:36;;;;;;;2.83;1.77;;;;;;;;;;5057147;28;20028;-59
2021/10/01 00:57:02;;;;;;;2.95;1.75;;;;;;;;;;5056308;28;20017;-59
2021/10/01 00:59:29;;;;;;;2.75;1.60;;;;;;;;;;5056591;28;20021;-59
2021/10/01 01:01:57;;;;;;;2.03;1.10;;;;;;;;;;5037960;28;20025;-59
2021/10/01 01:04:23;;;;;;;4.78;1.85;;;;;;;;;;5039492;28;20406;-59
2021/10/01 01:07:00;;;;;;;5.53;1.92;;;;;;;;;;5056130;28;20033;-59
2021/10/01 01:09:32;;;;;;;4.43;2.05;;;;;;;;;;5038152;28;20029;-59
2021/10/01 01:12:10;;;;;;;3.47;1.70;;;;;;;;;;5037891;28;20045;-59
2021/10/01 01:14:44;;;;;;;2.85;1.83;;;;;;;;;;5038180;28;20056;-59
2021/10/01 01:17:14;;;;;;;4.22;1.85;;;;;;;;;;5056261;28;20025;-59
2021/10/01 01:19:43;;;;;;;2.70;1.30;;;;;;;;;;5037990;28;20025;-59
2021/10/01 01:22:21;;;;;;;3.28;1.85;;;;;;;;;;5056088;28;20267;-59
2021/10/01 01:24:57;;;;;;;4.10;1.92;;;;;;;;;;5038446;28;20040;-59
2021/10/01 01:27:26;;;;;;;3.65;1.75;;;;;;;;;;5038211;28;20521;-59
2021/10/01 01:30:02;;;;;;;4.78;1.70;;;;;;;;;;5055705;28;20032;-59
2021/10/01 01:32:31;;;;;;;3.35;1.65;;;;;;;;;;5055622;28;20128;-59
2021/10/01 01:35:06;;;;;;;2.95;1.95;;;;;;;;;;5056146;28;20581;-59
2021/10/01 01:37:38;;;;;;;3.33;2.00;;;;;;;;;;5056190;28;20410;-59
2021/10/01 01:40:05;;;;;;;5.90;2.13;;;;;;;;;;5037588;28;20059;-59
2021/10/01 01:42:31;;;;;;;3.03;1.80;;;;;;;;;;5056024;28;20504;-59
2021/10/01 01:44:58;;;;;;;8.85;2.25;;;;;;;;;;5038059;28;20029;-59
2021/10/01 01:47:28;;;;;;;3.35;2.00;;;;;;;;;;5055456;28;20040;-59
2021/10/01 01:49:56;;;;;;;2.60;1.58;;;;;;;;;;5055656;28;20029;-59
2021/10/01 01:52:23;;;;;;;2.40;1.60;;;;;;;;;;5037980;28;20040;-59
2021/10/01 01:54:50;;;;;;;2.40;1.45;;;;;;;;;;5037914;28;20072;-59
2021/10/01 01:57:16;;;;;;;3.20;1.75;;;;;;;;;;5055451;28;20029;-59
2021/10/01 01:59:42;;;;;;;2.58;1.20;;;;;;;;;;5054682;28;20025;-59
2021/10/01 02:02:09;;;;;;;2.47;1.58;;;;;;;;;;5037572;28;20025;-59
2021/10/01 02:04:38;;;;;;;2.42;1.25;;;;;;;;;;5037350;28;20028;-59
2021/10/01 02:07:12;;;;;;;4.63;1.85;;;;;;;;;;5037324;28;20025;-59
2021/10/01 02:09:38;;;;;;;3.42;2.15;;;;;;;;;;5037380;28;20033;-59
2021/10/01 02:12:04;;;;;;;2.55;1.52;;;;;;;;;;5036733;28;20045;-59
2021/10/01 02:14:32;;;;;;;2.28;1.33;;;;;;;;;;5055423;28;20123;-59
2021/10/01 02:16:59;;;;;;;2.65;1.45;;;;;;;;;;5054768;28;20017;-59
2021/10/01 02:19:30;;;;;;;3.15;1.45;;;;;;;;;;5036668;28;20025;-59
2021/10/01 02:21:57;;;;;;;3.05;1.40;;;;;;;;;;5055128;28;20025;-59
2021/10/01 02:24:28;;;;;;;1.90;1.10;;;;;;;;;;5037109;28;20060;-59
2021/10/01 02:27:06;;;;;;;2.78;2.13;;;;;;;;;;5054624;28;20486;-59
2021/10/01 02:29:52;;;;;;;2.78;1.27;;;;;;;;;;5055356;28;20025;-59
2021/10/01 02:32:18;;;;;;;2.35;1.73;;;;;;;;;;5055199;28;20055;-59
2021/10/01 02:34:46;;;;;;;2.55;1.20;;;;;;;;;;5054141;28;20057;-59
2021/10/01 02:37:13;;;;;;;2.13;1.30;;;;;;;;;;5036600;28;20475;-59
2021/10/01 02:39:40;;;;;;;2.90;1.60;;;;;;;;;;5054331;28;20035;-59
2021/10/01 02:42:07;;;;;;;3.17;1.88;;;;;;;;;;5054116;28;20068;-59
2021/10/01 02:44:34;;;;;;;4.72;1.52;;;;;;;;;;5054596;28;20021;-59
2021/10/01 02:47:00;;;;;;;2.88;1.60;;;;;;;;;;5054303;28;20155;-59
2021/10/01 02:49:26;;;;;;;3.17;1.58;;;;;;;;;;5053865;28;20043;-59
2021/10/01 02:51:55;;;;;;;3.25;1.38;;;;;;;;;;5054193;28;20025;-61
2021/10/01 02:54:34;;;;;;;4.05;1.90;;;;;;;;;;5036430;28;20541;-59
2021/10/01 02:57:02;;;;;;;3.30;1.55;;;;;;;;;;5054049;28;20489;-59
2021/10/01 02:59:35;;;;;;;3.58;1.33;;;;;;;;;;5053998;28;20398;-59
2021/10/01 03:02:04;;;;;;;3.28;1.40;;;;;;;;;;5054568;28;20029;-59
2021/10/01 03:04:33;;;;;;;2.67;1.40;;;;;;;;;;5054484;28;20032;-59
2021/10/01 03:07:03;;;;;;;2.42;1.65;;;;;;;;;;5036603;28;20025;-59
2021/10/01 03:09:30;;;;;;;5.32;1.85;;;;;;;;;;5036037;28;20409;-59
2021/10/01 03:12:03;;;;;;;2.42;1.60;;;;;;;;;;5052669;28;20098;-59
2021/10/01 03:14:34;;;;;;;3.22;1.73;;;;;;;;;;5054201;28;20040;-59
2021/10/01 03:17:00;;;;;;;2.60;1.85;;;;;;;;;;5035918;28;20024;-59
2021/10/01 03:19:27;;;;;;;2.30;1.48;;;;;;;;;;5053640;28;20028;-59
2021/10/01 03:21:56;;;;;;;2.80;1.75;;;;;;;;;;5054009;28;20104;-59
2021/10/01 03:24:22;;;;;;;3.03;1.63;;;;;;;;;;5036405;28;20102;-59
2021/10/01 03:26:51;;;;;;;4.75;2.33;;;;;;;;;;5019451;28;20033;-59
2021/10/01 03:29:18;;;;;;;1.95;1.27;;;;;;;;;;5036017;28;20061;-59
2021/10/01 03:31:45;;;;;;;2.65;1.60;;;;;;;;;;5053514;28;20062;-59
2021/10/01 03:34:16;;;;;;;2.92;2.20;;;;;;;;;;5053810;28;20036;-60
2021/10/01 03:36:45;;;;;;;2.45;1.50;;;;;;;;;;5054109;28;20061;-59
2021/10/01 03:39:12;;;;;;;3.63;1.73;;;;;;;;;;5053702;28;20029;-59
2021/10/01 03:41:41;;;;;;;2.25;1.20;;;;;;;;;;5053364;28;20037;-60
2021/10/01 03:44:07;;;;;;;2.85;1.50;;;;;;;;;;5036284;28;20029;-59
2021/10/01 03:46:33;;;;;;;2.40;1.45;;;;;;;;;;5035364;28;20383;-59
2021/10/01 03:48:59;;;;;;;2.95;1.73;;;;;;;;;;5036231;28;20104;-59
2021/10/01 03:51:25;;;;;;;2.92;1.25;;;;;;;;;;5052429;28;20037;-59
2021/10/01 03:53:54;;;;;;;3.30;1.70;;;;;;;;;;5035831;28;20048;-60
2021/10/01 03:56:20;;;;;;;2.40;1.48;;;;;;;;;;5053383;28;20509;-60
2021/10/01 03:58:54;;;;;;;9.27;1.70;;;;;;;;;;5035244;28;20071;-59
2021/10/01 04:01:21;;;;;;;2.95;1.67;;;;;;;;;;5053912;28;20044;-60
2021/10/01 04:03:47;;;;;;;3.75;1.88;;;;;;;;;;5036066;28;20025;-60
2021/10/01 04:06:15;;;;;;;3.40;1.65;;;;;;;;;;5053214;28;20021;-60
2021/10/01 04:08:41;;;;;;;6.05;1.67;;;;;;;;;;5053262;28;20065;-60
2021/10/01 04:11:10;;;;;;;8.57;2.10;;;;;;;;;;5053314;28;20103;-60
2021/10/01 04:13:36;;;;;;;3.00;1.45;;;;;;;;;;5052911;28;20025;-59
2021/10/01 04:16:05;;;;;;;2.78;1.40;;;;;;;;;;5053180;28;20040;-59
2021/10/01 04:18:31;;;;;;;3.17;1.45;;;;;;;;;;5053061;28;20139;-59
2021/10/01 04:20:59;;;;;;;3.00;1.80;;;;;;;;;;5035312;28;20060;-59
2021/10/01 04:23:25;;;;;;;2.70;1.60;;;;;;;;;;5056500;28;20070;-59
2021/10/01 04:25:54;;;;;;;6.32;2.17;;;;;;;;;;5056893;28;20017;-59
2021/10/01 04:28:23;;;;;;;2.10;1.42;;;;;;;;;;5057140;28;20025;-59
2021/10/01 04:30:53;;;;;;;3.80;1.48;;;;;;;;;;5056700;28;20021;-60
2021/10/01 04:33:24;;;;;;;2.15;1.27;;;;;;;;;;5039481;28;20397;-60
2021/10/01 04:35:53;;;;;;;4.20;1.83;;;;;;;;;;5040045;28;20108;-60
2021/10/01 04:38:22;;;;;;;3.15;1.75;;;;;;;;;;5056692;28;20398;-60
2021/10/01 04:40:48;;;;;;;7.15;2.80;;;;;;;;;;5056655;28;20021;-60
2021/10/01 04:43:17;;;;;;;3.53;1.83;;;;;;;;;;5056702;28;20116;-59
2021/10/01 04:45:43;;;;;;;4.30;2.10;;;;;;;;;;5056993;28;20021;-60
2021/10/01 04:48:09;;;;;;;4.60;1.80;;;;;;;;;;5038674;28;20021;-59
2021/10/01 04:50:35;;;;;;;3.13;1.55;;;;;;;;;;5056810;28;20055;-60
2021/10/01 04:53:01;;;;;;;3.95;1.63;;;;;;;;;;5056427;28;20031;-60
2021/10/01 04:55:28;;;;;;;3.20;2.08;;;;;;;;;;5038313;28;20032;-60
2021/10/01 04:57:54;;;;;;;7.25;1.90;;;;;;;;;;5056210;28;20463;-60
2021/10/01 05:00:21;;;;;;;3.03;1.67;;;;;;;;;;5022144;28;20013;-60
2021/10/01 05:02:47;;;;;;;4.40;2.28;;;;;;;;;;5039121;28;20028;-60
2021/10/01 05:05:21;;;;;;;7.57;2.22;;;;;;;;;;5037942;28;20025;-60
2021/10/01 05:07:47;;;;;;;2.65;1.70;;;;;;;;;;5038029;28;20059;-58
2021/10/01 05:10:14;;;;;;;5.55;2.22;;;;;;;;;;5056101;28;20046;-58
2021/10/01 05:12:40;;;;;;;3.58;1.27;;;;;;;;;;5055838;28;20049;-58
2021/10/01 05:15:07;;;;;;;3.55;1.65;;;;;;;;;;5021545;28;20479;-58
2021/10/01 05:17:35;;;;;;;4.10;2.60;;;;;;;;;;5055857;28;20033;-58
2021/10/01 05:20:02;;;;;;;3.97;2.00;;;;;;;;;;5038434;28;20031;-58
2021/10/01 05:22:31;;;;;;;3.72;2.28;;;;;;;;;;5056357;28;20057;-58
2021/10/01 05:24:58;;;;;;;4.20;1.90;;;;;;;;;;5056280;28;20424;-58
2021/10/01 05:27:30;;;;;;;2.90;1.75;;;;;;;;;;5038311;28;20033;-58
2021/10/01 05:29:56;;;;;;;6.47;2.53;;;;;;;;;;5037880;28;20021;-60
2021/10/01 05:32:24;;;;;;;2.85;1.63;;;;;;;;;;5056360;28;20031;-60
2021/10/01 05:34:50;;;;;;;3.42;1.50;;;;;;;;;;5055084;28;20017;-60
2021/10/01 05:37:19;;;;;;;3.80;2.20;;;;;;;;;;5055572;28;20021;-60
2021/10/01 05:39:45;;;;;;;2.22;1.58;;;;;;;;;;5055833;28;20044;-59
2021/10/01 05:42:12;;;;;;;2.88;1.67;;;;;;;;;;5038009;28;20500;-60
2021/10/01 05:44:40;;;;;;;5.78;2.45;;;;;;;;;;5055222;28;20064;-60
2021/10/01 05:47:12;;;;;;;6.47;2.88;;;;;;;;;;5037671;28;20025;-60
2021/10/01 05:49:40;;;;;;;4.97;2.60;;;;;;;;;;5055508;28;20028;-60
2021/10/01 05:52:51;;;;;;;5.15;2.85;;;;;;;;;;5021388;28;20025;-60
2021/10/01 05:55:06;;;;;;;4.55;1.70;;;;;;;;;;5050247;28;20045;-59
2021/10/01 05:57:33;;;;;;;3.88;2.47;;;;;;;;;;5021367;28;20032;-60
2021/10/01 06:00:00;;;;;;;4.97;2.67;;;;;;;;;;5055246;28;20024;-60
2021/10/01 06:02:27;;;;;;;3.85;2.05;;;;;;;;;;5020662;28;20028;-60
2021/10/01 06:04:56;;;;;;;5.70;3.00;;;;;;;;;;5036855;28;20570;-60
2021/10/01 06:07:24;;;;;;;6.65;2.83;;;;;;;;;;5055432;28;20079;-60
2021/10/01 06:09:53;;;;;;;3.55;2.50;;;;;;;;;;5054606;28;20025;-59
2021/10/01 06:12:19;;;;;;;3.17;2.20;;;;;;;;;;5037402;28;20069;-59
2021/10/01 06:14:45;;;;;;;2.85;2.15;;;;;;;;;;5054946;28;20094;-59
2021/10/01 06:17:12;;;;;;;3.05;1.90;;;;;;;;;;5055639;28;20025;-59
2021/10/01 06:19:41;;;;;;;3.92;2.25;;;;;;;;;;5055064;28;20029;-59
2021/10/01 06:22:07;;;;;;;4.20;2.70;;;;;;;;;;5055074;28;20044;-59
2021/10/01 06:24:34;;;;;;;4.35;2.80;;;;;;;;;;5054557;28;20112;-59
2021/10/01 06:27:00;;;;;;;4.40;2.78;;;;;;;;;;5054686;28;20538;-59
2021/10/01 06:29:26;;;;;;;3.20;2.45;;;;;;;;;;5054659;28;20364;-59
2021/10/01 06:31:54;;;;;;;6.47;2.50;;;;;;;;;;5054540;28;20032;-59
2021/10/01 06:34:20;;;;;;;3.95;2.95;;;;;;;;;;5054526;28;20025;-59
2021/10/01 06:36:46;;;;;;;3.35;2.05;;;;;;;;;;5054697;28;20527;-59
2021/10/01 06:39:13;;;;;;;3.40;2.80;;;;;;;;;;5054270;28;20036;-60
2021/10/01 06:41:41;;;;;;;2.78;2.30;;;;;;;;;;5036072;28;20028;-59
2021/10/01 06:44:08;;;;;;;4.00;3.15;;;;;;;;;;5037211;28;20048;-59
2021/10/01 06:46:42;;;;;;;4.75;2.92;;;;;;;;;;5036242;28;20029;-59
2021/10/01 06:52:11;;;;;;;4.00;2.35;;;;;;;;;;5054329;28;20120;-59
2021/10/01 08:19:37;;;;;;;5.28;2.42;;;;;;;;;;5057231;28;20513;-59
2021/10/01 08:22:06;;;;;;;4.15;2.17;;;;;;;;;;5040124;28;20431;-59
2021/10/01 08:24:32;;;;;;;4.07;2.28;;;;;;;;;;5056975;28;20044;-59
2021/10/01 08:26:58;;;;;;;3.53;2.33;;;;;;;;;;5039238;28;20033;-59
2021/10/01 08:29:25;;;;;;;3.33;1.67;;;;;;;;;;5056587;28;20056;-59
2021/10/01 08:31:51;;;;;;;5.03;1.65;;;;;;;;;;5056895;28;20029;-59
2021/10/01 08:34:17;;;;;;;3.78;1.38;;;;;;;;;;5057551;28;20073;-59
2021/10/01 08:36:49;;;;;;;2.78;1.92;;;;;;;;;;5056518;28;20446;-59
2021/10/01 08:39:15;;;;;;;4.13;1.77;;;;;;;;;;5039264;28;20060;-59
2021/10/01 08:41:44;;;;;;;3.25;1.85;;;;;;;;;;5056618;28;20059;-59
2021/10/01 08:44:12;;;;;;;3.35;2.45;;;;;;;;;;5056972;28;20362;-59
2021/10/01 08:46:38;;;;;;;7.57;2.47;;;;;;;;;;5056586;28;20021;-60
2021/10/01 08:49:09;;;;;;;2.97;2.05;;;;;;;;;;5038350;28;20051;-59
2021/10/01 08:51:36;;;;;;;6.13;2.15;;;;;;;;;;5023065;28;20419;-59
2021/10/01 08:54:02;;;;;;;3.38;2.30;;;;;;;;;;5056927;28;20056;-59
2021/10/01 08:56:28;;;;;;;2.80;1.65;;;;;;;;;;5038765;28;20463;-59
2021/10/01 08:58:54;;;;;;;3.53;2.28;;;;;;;;;;5039037;28;20348;-59
2021/10/01 09:01:20;;;;;;;3.05;1.80;;;;;;;;;;5056383;28;20028;-59
2021/10/01 09:03:47;;;;;;;4.82;2.08;;;;;;;;;;5039189;28;20029;-59
2021/10/01 09:06:18;;;;;;;3.35;1.88;;;;;;;;;;5037874;28;20037;-59
2021/10/01 09:08:53;;;;;;;3.83;1.77;;;;;;;;;;5037996;28;20072;-59
2021/10/01 09:11:28;;;;;;;4.18;2.00;;;;;;;;;;5056096;28;20072;-60
2021/10/01 09:13:54;;;;;;;3.25;1.88;;;;;;;;;;5056853;28;20080;-59
2021/10/01 09:16:21;;;;;;;5.60;2.10;;;;;;;;;;5038508;28;20352;-59
2021/10/01 09:18:49;;;;;;;5.90;2.30;;;;;;;;;;5038793;28;20474;-59
2021/10/01 09:21:17;;;;;;;3.50;2.10;;;;;;;;;;5056112;28;20029;-59
2021/10/01 09:23:58;;;;;;;3.47;2.15;;;;;;;;;;5056065;28;20029;-60
2021/10/01 09:26:25;;;;;;;4.05;1.80;;;;;;;;;;5056548;28;20035;-59
2021/10/01 09:28:59;;;;;;;5.03;2.22;;;;;;;;;;5055796;28;20035;-60
2021/10/01 09:31:45;;;;;;;2.63;1.50;;;;;;;;;;5038091;28;20056;-60
2021/10/01 09:34:14;;;;;;;9.27;1.58;;;;;;;;;;5056226;28;20032;-59
2021/10/01 09:36:57;;;;;;;4.18;2.20;;;;;;;;;;5056154;28;20067;-59
2021/10/01 09:39:27;;;;;;;2.13;1.48;;;;;;;;;;5037831;28;20033;-59
2021/10/01 09:41:53;;;;;;;5.50;1.80;;;;;;;;;;5037918;28;20036;-59
2021/10/01 09:44:19;;;;;;;3.97;2.15;;;;;;;;;;5038247;28;20032;-59
2021/10/01 09:46:47;;;;;;;7.43;1.60;;;;;;;;;;5037324;28;20029;-59
2021/10/01 09:49:14;;;;;;;4.22;1.65;;;;;;;;;;5055418;28;20474;-59
2021/10/01 09:51:47;;;;;;;10.38;2.05;;;;;;;;;;5021107;28;20052;-59
2021/10/01 09:54:14;;;;;;;2.38;1.40;;;;;;;;;;5055931;28;20033;-60
2021/10/01 09:56:41;;;;;;;5.00;1.40;;;;;;;;;;5055434;28;20036;-60
2021/10/01 09:59:09;;;;;;;2.63;1.33;;;;;;;;;;5055364;28;20047;-60
2021/10/01 10:01:35;;;;;;;4.05;1.40;;;;;;;;;;5056096;28;20333;-60
2021/10/01 10:04:15;;;;;;;6.25;1.40;;;;;;;;;;5037929;28;20059;-60
2021/10/01 10:06:45;;;;;;;2.27;1.50;;;;;;;;;;5055123;28;20043;-60
2021/10/01 10:09:12;;;;;;;4.57;1.85;;;;;;;;;;5055175;28;20025;-60
2021/10/01 10:11:39;;;;;;;2.28;1.10;;;;;;;;;;5036595;28;20045;-59
2021/10/01 10:14:08;;;;;;;2.70;1.67;;;;;;;;;;5037953;28;20033;-60
2021/10/01 10:16:34;;;;;;;3.33;1.50;;;;;;;;;;5055236;28;20403;-60
2021/10/01 10:19:01;;;;;;;5.43;1.02;;;;;;;;;;5036760;28;20538;-60
2021/10/01 10:21:27;;;;;;;3.53;1.92;;;;;;;;;;5054486;28;20363;-60
2021/10/01 10:23:54;;;;;;;3.72;1.17;;;;;;;;;;5054859;28;20033;-60
2021/10/01 10:26:20;;;;;;;2.78;0.85;;;;;;;;;;5021429;28;20029;-60
2021/10/01 10:28:47;;;;;;;3.58;1.10;;;;;;;;;;5054761;28;20537;-59
2021/10/01 10:31:14;;;;;;;2.80;1.25;;;;;;;;;;5054636;28;20032;-59
2021/10/01 10:33:40;;;;;;;2.08;0.70;;;;;;;;;;5055077;28;20033;-58
2021/10/01 10:36:25;;;;;;;2.58;1.25;;;;;;;;;;5036579;28;20040;-58
2021/10/01 10:38:51;;;;;;;1.52;0.68;;;;;;;;;;5036600;28;20466;-59
2021/10/01 10:41:26;;;;;;;3.42;1.17;;;;;;;;;;5055148;28;20509;-59
2021/10/01 10:43:52;;;;;;;3.67;1.35;;;;;;;;;;5055037;28;20516;-59
2021/10/01 10:46:36;;;;;;;2.35;1.13;;;;;;;;;;5054724;28;20025;-60
2021/10/01 10:49:19;;;;;;;3.40;0.98;;;;;;;;;;5054361;28;20112;-59
2021/10/01 10:52:08;;;;;;;1.85;1.00;;;;;;;;;;5054286;28;20464;-58
2021/10/01 10:54:39;;;;;;;2.25;1.17;;;;;;;;;;5036363;28;20051;-59
2021/10/01 10:59:43;;;;;;;3.38;0.80;;;;;;;;;;5054086;28;20029;-59
2021/10/01 11:02:27;;;;;;;2.72;1.08;;;;;;;;;;5037011;28;20440;-59
2021/10/01 11:05:13;;;;;;;2.00;0.85;;;;;;;;;;5054507;28;20348;-59
2021/10/01 11:07:54;;;;;;;0.90;0.35;;;;;;;;;;5053943;28;20067;-59
2021/10/01 11:10:45;;;;;;;1.55;0.68;;;;;;;;;;5035829;28;20028;-59
2021/10/01 11:13:37;;;;;;;1.40;0.60;;;;;;;;;;5054179;28;20487;-59
2021/10/01 11:16:09;;;;;;;3.15;0.80;;;;;;;;;;5048862;28;20041;-59
2021/10/01 11:18:47;;;;;;;3.30;0.57;;;;;;;;;;5053861;28;20028;-59
2021/10/01 11:21:33;;;;;;;0.98;0.40;;;;;;;;;;5054057;28;20025;-59
2021/10/01 11:24:02;;;;;;;3.72;0.98;;;;;;;;;;5054097;28;20075;-59
2021/10/01 11:26:33;;;;;;;2.97;0.93;;;;;;;;;;5053714;28;20348;-59
2021/10/01 11:29:00;;;;;;;1.95;0.85;;;;;;;;;;5053768;28;20017;-59
2021/10/01 11:31:39;;;;;;;1.70;0.80;;;;;;;;;;5052696;28;20056;-59
2021/10/01 11:34:05;;;;;;;1.33;0.60;;;;;;;;;;5053938;28;20036;-59
2021/10/01 11:36:33;;;;;;;1.42;0.77;;;;;;;;;;5035852;28;20104;-59
2021/10/01 11:39:08;;;;;;;3.22;0.80;;;;;;;;;;5053624;28;20024;-59
2021/10/01 11:41:38;;;;;;;0.90;0.40;;;;;;;;;;5053658;28;20344;-59
2021/10/01 11:44:06;;;;;;;1.27;0.70;;;;;;;;;;5053656;28;20025;-59
2021/10/01 11:46:37;;;;;;;3.45;0.50;;;;;;;;;;5053401;28;20025;-59
2021/10/01 11:49:06;;;;;;;1.33;0.50;;;;;;;;;;5054052;28;20021;-59
2021/10/01 11:51:32;;;;;;;2.17;0.85;;;;;;;;;;5036333;28;20025;-59
2021/10/01 11:54:07;;;;;;;1.70;0.77;;;;;;;;;;5035586;28;20064;-59
2021/10/01 11:56:33;;;;;;;4.00;0.68;;;;;;;;;;5054294;28;20083;-59
2021/10/01 11:58:59;;;;;;;1.27;0.63;;;;;;;;;;5054200;28;20028;-59
2021/10/01 12:01:26;;;;;;;1.33;0.77;;;;;;;;;;5035249;28;20105;-59
2021/10/01 12:03:53;;;;;;;1.48;0.70;;;;;;;;;;5036097;28;20057;-59
2021/10/01 12:06:39;;;;;;;2.03;0.47;;;;;;;;;;5053551;28;20029;-59
2021/10/01 12:09:06;;;;;;;0.60;0.35;;;;;;;;;;5053352;28;20024;-59
2021/10/01 12:11:52;;;;;;;3.58;0.80;;;;;;;;;;5022705;28;20361;-59
2021/10/01 12:14:19;;;;;;;0.88;0.47;;;;;;;;;;5014419;28;20033;-60
2021/10/01 12:16:59;;;;;;;1.05;0.45;;;;;;;;;;5013227;28;20042;-59
2021/10/01 12:19:26;;;;;;;1.40;0.55;;;;;;;;;;5014114;28;20109;-59
2021/10/01 12:22:06;;;;;;;0.80;0.47;;;;;;;;;;5013570;28;20030;-59
2021/10/01 12:24:41;;;;;;;1.23;0.60;;;;;;;;;;5012351;28;20033;-59
2021/10/01 12:27:07;;;;;;;2.20;0.55;;;;;;;;;;5012493;28;20049;-59
2021/10/01 12:29:41;;;;;;;1.50;0.60;;;;;;;;;;5013249;28;20030;-59
2021/10/01 12:32:07;;;;;;;3.67;0.93;;;;;;;;;;5013151;28;20446;-59
2021/10/01 12:34:41;;;;;;;2.78;0.80;;;;;;;;;;5013371;28;20376;-59
2021/10/01 12:37:09;;;;;;;1.42;0.63;;;;;;;;;;5013910;28;20334;-59
2021/10/01 12:39:36;;;;;;;2.90;1.20;;;;;;;;;;5013410;28;20033;-59
2021/10/01 12:42:04;;;;;;;1.40;0.88;;;;;;;;;;5013526;28;20037;-59
2021/10/01 12:44:36;;;;;;;3.60;1.30;;;;;;;;;;5016279;28;20464;-59
2021/10/01 12:47:12;;;;;;;1.52;0.40;;;;;;;;;;5017089;28;20053;-59
2021/10/01 12:49:41;;;;;;;1.38;0.70;;;;;;;;;;5017508;28;20088;-59
2021/10/01 12:52:09;;;;;;;1.27;0.80;;;;;;;;;;5016909;28;20022;-59
2021/10/01 12:54:36;;;;;;;1.60;0.77;;;;;;;;;;5015713;28;20556;-59
2021/10/01 12:57:12;;;;;;;2.35;0.98;;;;;;;;;;5015624;28;20032;-59
2021/10/01 12:59:42;;;;;;;1.17;0.50;;;;;;;;;;5016722;28;20022;-59
2021/10/01 13:02:13;;;;;;;1.70;1.05;;;;;;;;;;5017082;28;20025;-59
2021/10/01 13:04:38;;;;;;;;;;;;;;;;;;5017323;28;20026;-59
2021/10/01 13:07:19;;;;;;;2.50;1.13;;;;;;;;;;5016908;28;19909;-59
2021/10/01 13:09:49;;;;;;;2.50;0.85;;;;;;;;;;5015442;28;20033;-59
2021/10/01 13:12:33;;;;;;;1.38;0.77;;;;;;;;;;5047360;28;20055;-59
2021/10/01 13:15:16;;;;;;;2.65;0.85;;;;;;;;;;5038847;28;20025;-59
2021/10/01 13:17:43;;;;;;;1.92;1.10;;;;;;;;;;5055952;28;20025;-59
2021/10/01 13:20:11;;;;;;;2.38;1.00;;;;;;;;;;5038200;28;20056;-59
2021/10/01 13:22:57;;;;;;;2.28;1.33;;;;;;;;;;5038186;28;20367;-60
2021/10/01 13:25:27;;;;;;;1.50;0.80;;;;;;;;;;5038189;28;20538;-59
2021/10/01 13:27:55;;;;;;;2.97;1.52;;;;;;;;;;5055887;28;20123;-59
2021/10/01 13:30:21;;;;;;;2.85;0.90;;;;;;;;;;5055853;28;20029;-59
2021/10/01 13:32:47;;;;;;;2.53;1.23;;;;;;;;;;5038924;28;20132;-59
2021/10/01 13:35:15;;;;;;;2.50;1.35;;;;;;;;;;5056376;28;20406;-59
2021/10/01 13:37:43;;;;;;;3.30;1.40;;;;;;;;;;5056386;28;20017;-59
2021/10/01 13:40:09;;;;;;;2.50;1.48;;;;;;;;;;5055629;28;20029;-59
2021/10/01 13:42:35;;;;;;;2.42;1.55;;;;;;;;;;5056179;28;20073;-59
2021/10/01 13:45:01;;;;;;;3.08;1.40;;;;;;;;;;5055580;28;20084;-59
2021/10/01 13:47:27;;;;;;;2.17;1.20;;;;;;;;;;5055254;28;20478;-59
2021/10/01 13:49:53;;;;;;;3.03;1.42;;;;;;;;;;5037439;28;20037;-59
2021/10/01 13:52:20;;;;;;;4.18;1.50;;;;;;;;;;5055897;28;20032;-59
2021/10/01 13:54:46;;;;;;;2.03;1.25;;;;;;;;;;5055108;28;20029;-59
2021/10/01 13:57:12;;;;;;;3.25;1.80;;;;;;;;;;5055589;28;20017;-59
2021/10/01 13:59:38;;;;;;;2.25;1.15;;;;;;;;;;5055638;28;20084;-59
2021/10/01 14:02:04;;;;;;;2.55;0.93;;;;;;;;;;5055347;28;20017;-59
2021/10/01 14:04:33;;;;;;;2.78;1.48;;;;;;;;;;5055444;28;20060;-59
2021/10/01 14:06:59;;;;;;;4.15;2.00;;;;;;;;;;5055459;28;20028;-59
2021/10/01 14:09:25;;;;;;;2.95;1.88;;;;;;;;;;5055695;28;20021;-59
2021/10/01 14:11:51;;;;;;;3.03;1.67;;;;;;;;;;5055025;28;20052;-59
2021/10/01 14:14:20;;;;;;;2.85;1.77;;;;;;;;;;5037217;28;20029;-59
2021/10/01 14:16:46;;;;;;;1.95;1.20;;;;;;;;;;5055391;28;20067;-59
2021/10/01 14:19:12;;;;;;;6.07;1.90;;;;;;;;;;5054681;28;20025;-60
2021/10/01 14:21:38;;;;;;;3.58;1.70;;;;;;;;;;5054933;28;20070;-60
2021/10/01 14:24:07;;;;;;;4.40;1.95;;;;;;;;;;5037648;28;20032;-60
2021/10/01 14:26:33;;;;;;;3.33;1.70;;;;;;;;;;5037992;28;20063;-60
2021/10/01 14:28:59;;;;;;;3.20;1.60;;;;;;;;;;5037124;28;20025;-60
2021/10/01 14:31:25;;;;;;;4.28;1.90;;;;;;;;;;5054729;28;20020;-60
2021/10/01 14:33:51;;;;;;;3.38;2.03;;;;;;;;;;5036816;28;20470;-60
2021/10/01 14:36:17;;;;;;;2.80;2.05;;;;;;;;;;5054679;28;20028;-60
2021/10/01 14:38:43;;;;;;;3.88;2.13;;;;;;;;;;5054885;28;20044;-60
2021/10/01 14:41:09;;;;;;;5.32;2.42;;;;;;;;;;5054366;28;20025;-60
2021/10/01 14:43:38;;;;;;;3.25;1.80;;;;;;;;;;5036874;28;20029;-60
2021/10/01 14:46:05;;;;;;;2.80;1.50;;;;;;;;;;5036159;28;20489;-60
2021/10/01 14:48:31;;;;;;;3.55;2.10;;;;;;;;;;5054666;28;20053;-60
2021/10/01 14:50:58;;;;;;;3.30;2.05;;;;;;;;;;5054099;28;20033;-60
2021/10/01 14:53:24;;;;;;;2.53;1.83;;;;;;;;;;5036372;28;20029;-60
2021/10/01 14:55:51;;;;;;;4.07;2.38;;;;;;;;;;5037049;28;20071;-60
2021/10/01 14:58:19;;;;;;;4.10;2.10;;;;;;;;;;5036314;28;20482;-60
2021/10/01 15:00:49;;;;;;;4.13;2.38;;;;;;;;;;5036668;28;20078;-60
2021/10/01 15:03:16;;;;;;;3.30;2.35;;;;;;;;;;5054447;28;20413;-60
2021/10/01 15:05:41;;;;;;;4.00;2.47;;;;;;;;;;5054203;28;20163;-60
2021/10/01 15:08:07;;;;;;;5.15;2.25;;;;;;;;;;5053415;28;20059;-60
2021/10/01 15:10:34;;;;;;;2.55;1.90;;;;;;;;;;5053913;28;20363;-60
2021/10/01 15:13:00;;;;;;;3.47;2.47;;;;;;;;;;5054555;28;20048;-60
2021/10/01 15:15:27;;;;;;;3.40;2.25;;;;;;;;;;5054051;28;20017;-60
2021/10/01 15:17:54;;;;;;;2.50;2.08;;;;;;;;;;5036582;28;20048;-60
2021/10/01 15:20:20;;;;;;;3.10;2.13;;;;;;;;;;5054415;28;20029;-60
2021/10/01 15:22:46;;;;;;;4.07;2.17;;;;;;;;;;5054080;28;20021;-60
2021/10/01 15:25:15;;;;;;;4.25;3.10;;;;;;;;;;5054660;28;20036;-60
2021/10/01 15:27:42;;;;;;;3.65;2.50;;;;;;;;;;5053872;28;20052;-60
2021/10/01 15:30:11;;;;;;;3.05;2.10;;;;;;;;;;5053732;28;20025;-60
2021/10/01 15:32:38;;;;;;;4.10;2.58;;;;;;;;;;5053917;28;20513;-60
2021/10/01 15:35:04;;;;;;;3.67;2.25;;;;;;;;;;5054097;28;20028;-60
2021/10/01 15:37:31;;;;;;;3.28;2.25;;;;;;;;;;5053706;28;20027;-60
2021/10/01 15:39:59;;;;;;;4.28;1.83;;;;;;;;;;5053605;28;20025;-60
2021/10/01 15:42:25;;;;;;;3.08;2.03;;;;;;;;;;5053972;28;20025;-60
2021/10/01 15:44:51;;;;;;;3.10;2.58;;;;;;;;;;5053580;28;20470;-60
2021/10/01 15:47:17;;;;;;;3.53;2.30;;;;;;;;;;5053517;28;20021;-60
2021/10/01 15:49:43;;;;;;;5.18;2.53;;;;;;;;;;5054117;28;20443;-60
2021/10/01 15:52:09;;;;;;;7.72;2.10;;;;;;;;;;5053504;28;20032;-60
2021/10/01 15:54:35;;;;;;;3.45;2.20;;;;;;;;;;5053555;28;20025;-60
2021/10/01 15:57:01;;;;;;;3.75;2.65;;;;;;;;;;5053810;28;20028;-60
2021/10/01 15:59:27;;;;;;;3.63;2.42;;;;;;;;;;5036122;28;20443;-60
2021/10/01 16:01:53;;;;;;;3.13;2.00;;;;;;;;;;5053406;28;20033;-60
2021/10/01 16:04:19;;;;;;;4.13;2.47;;;;;;;;;;5036142;28;20025;-60
2021/10/01 16:06:46;;;;;;;3.50;2.60;;;;;;;;;;5053504;28;20455;-60
2021/10/01 16:09:12;;;;;;;3.83;2.53;;;;;;;;;;5053957;28;20025;-60
2021/10/01 16:11:38;;;;;;;2.50;1.90;;;;;;;;;;5035188;28;20045;-60
2021/10/01 16:14:04;;;;;;;3.78;2.00;;;;;;;;;;5053206;28;20025;-60
2021/10/01 16:16:32;;;;;;;4.18;2.33;;;;;;;;;;5053562;28;20159;-59
2021/10/01 16:18:58;;;;;;;2.83;2.15;;;;;;;;;;5055803;28;20021;-60
2021/10/01 16:21:24;;;;;;;3.45;2.17;;;;;;;;;;5056990;28;20108;-60
2021/10/01 16:23:50;;;;;;;3.53;2.50;;;;;;;;;;5057220;28;20163;-60